createdAt,value
2017-11-27T00:00:49.684Z,3.79
2017-11-27T00:03:21.145Z,3.82
2017-11-27T00:05:52.916Z,3.77
2017-11-27T00:08:23.933Z,3.89
2017-11-27T00:10:55.759Z,3.80
2017-11-27T00:13:31.119Z,3.73
2017-11-27T00:16:02.578Z,3.69
2017-11-27T00:18:35.726Z,3.70
2017-11-27T00:21:07.125Z,3.71
2017-11-27T00:23:38.253Z,3.84
2017-11-27T00:26:09.625Z,3.87
2017-11-27T00:28:40.411Z,3.81
2017-11-27T00:31:11.744Z,3.78
2017-11-27T00:33:43.130Z,3.67
2017-11-27T00:36:14.119Z,3.66
2017-11-27T00:38:46.819Z,3.82
2017-11-27T00:41:18.235Z,3.64
2017-11-27T00:43:49.029Z,3.67
2017-11-27T00:46:20.322Z,3.63
2017-11-27T00:48:51.330Z,3.65
2017-11-27T00:51:22.461Z,3.57
2017-11-27T00:53:53.284Z,3.54
2017-11-27T00:56:32.280Z,3.60
2017-11-27T00:59:03.663Z,3.64
2017-11-27T01:01:35.332Z,3.57
2017-11-27T01:04:06.371Z,3.65
2017-11-27T01:06:37.369Z,3.63
2017-11-27T01:09:08.529Z,3.53
2017-11-27T01:11:39.620Z,3.58
2017-11-27T01:14:10.362Z,3.59
2017-11-27T01:16:41.571Z,3.47
2017-11-27T01:19:12.329Z,3.56
2017-11-27T01:21:43.193Z,3.45
2017-11-27T01:24:14.373Z,3.52
2017-11-27T01:26:45.254Z,3.50
2017-11-27T01:29:16.402Z,3.39
2017-11-27T01:31:47.810Z,3.33
2017-11-27T01:34:18.619Z,3.30
2017-11-27T01:36:49.784Z,3.55
2017-11-27T01:39:20.754Z,3.39
2017-11-27T01:41:52.103Z,3.21
2017-11-27T01:44:23.346Z,3.28
2017-11-27T01:46:54.771Z,3.43
2017-11-27T01:49:25.724Z,3.40
2017-11-27T01:51:57.072Z,3.21
2017-11-27T01:54:29.737Z,3.22
2017-11-27T01:57:01.192Z,3.17
2017-11-27T01:59:35.089Z,3.06
2017-11-27T02:02:07.005Z,3.15
2017-11-27T02:04:38.232Z,3.17
2017-11-27T02:07:09.069Z,3.38
2017-11-27T02:09:40.368Z,3.28
2017-11-27T02:12:11.512Z,3.12
2017-11-27T02:14:42.262Z,3.14
2017-11-27T02:17:13.533Z,3.12
2017-11-27T02:19:44.377Z,3.13
2017-11-27T02:22:15.879Z,3.04
2017-11-27T02:24:48.033Z,3.08
2017-11-27T02:27:19.041Z,3.00
2017-11-27T02:29:49.814Z,3.16
2017-11-27T02:32:22.232Z,3.12
2017-11-27T02:34:52.983Z,3.29
2017-11-27T02:37:23.898Z,3.35
2017-11-27T02:39:54.973Z,3.35
2017-11-27T02:42:32.027Z,3.09
2017-11-27T02:45:03.392Z,3.13
2017-11-27T02:47:34.239Z,3.09
2017-11-27T02:50:05.603Z,3.12
2017-11-27T02:52:36.377Z,3.08
2017-11-27T02:55:08.143Z,3.09
2017-11-27T02:57:39.409Z,3.20
2017-11-27T03:00:10.689Z,3.23
2017-11-27T03:02:44.140Z,3.27
2017-11-27T03:05:17.795Z,3.15
2017-11-27T03:07:49.027Z,3.17
2017-11-27T03:10:20.140Z,3.14
2017-11-27T03:12:51.140Z,2.92
2017-11-27T03:15:21.976Z,3.07
2017-11-27T03:17:52.959Z,2.98
2017-11-27T03:20:24.041Z,3.05
2017-11-27T03:22:55.355Z,3.09
2017-11-27T03:25:26.212Z,3.14
2017-11-27T03:27:57.356Z,3.26
2017-11-27T03:30:31.468Z,2.98
2017-11-27T03:33:02.682Z,3.02
2017-11-27T03:35:34.482Z,2.97
2017-11-27T03:38:05.740Z,3.09
2017-11-27T03:40:36.581Z,3.09
2017-11-27T03:43:07.382Z,3.08
2017-11-27T03:45:38.452Z,3.15
2017-11-27T03:48:09.588Z,2.96
2017-11-27T03:50:40.396Z,3.02
2017-11-27T03:53:11.230Z,3.04
2017-11-27T03:55:42.048Z,2.90
2017-11-27T03:58:15.371Z,2.99
2017-11-27T04:00:46.125Z,3.24
2017-11-27T04:03:17.009Z,3.12
2017-11-27T04:05:48.258Z,3.21
2017-11-27T04:08:19.216Z,3.00
2017-11-27T04:10:50.571Z,3.06
2017-11-27T04:13:21.387Z,3.05
2017-11-27T04:15:52.251Z,3.01
2017-11-27T04:18:23.300Z,3.12
2017-11-27T04:20:54.381Z,3.05
2017-11-27T04:23:25.444Z,3.09
2017-11-27T04:25:56.325Z,3.06
2017-11-27T04:28:29.102Z,3.09
2017-11-27T04:31:00.011Z,3.05
2017-11-27T04:33:33.088Z,3.14
2017-11-27T04:36:04.193Z,3.16
2017-11-27T04:38:35.028Z,3.18
2017-11-27T04:41:05.769Z,3.16
2017-11-27T04:43:37.109Z,3.24
2017-11-27T04:46:08.101Z,3.17
2017-11-27T04:48:39.140Z,3.13
2017-11-27T04:51:10.927Z,3.20
2017-11-27T04:53:41.873Z,3.24
2017-11-27T04:56:12.824Z,3.33
2017-11-27T04:58:44.214Z,3.29
2017-11-27T05:01:15.023Z,3.31
2017-11-27T05:03:45.989Z,3.29
2017-11-27T05:06:16.946Z,3.24
2017-11-27T05:08:47.736Z,3.31
2017-11-27T05:11:24.825Z,3.27
2017-11-27T05:13:56.008Z,3.27
2017-11-27T05:16:28.088Z,3.21
2017-11-27T05:18:59.196Z,3.24
2017-11-27T05:21:31.963Z,3.21
2017-11-27T05:24:02.977Z,3.29
2017-11-27T05:26:34.516Z,3.11
2017-11-27T05:29:05.746Z,3.22
2017-11-27T05:31:36.551Z,3.30
2017-11-27T05:34:07.819Z,3.21
2017-11-27T05:36:39.119Z,3.29
2017-11-27T05:39:10.265Z,3.21
2017-11-27T05:41:41.506Z,3.22
2017-11-27T05:44:19.768Z,3.19
2017-11-27T05:46:59.015Z,3.18
2017-11-27T05:49:41.134Z,3.19
2017-11-27T05:53:36.388Z,3.17
2017-11-27T05:56:09.734Z,3.21
2017-11-27T05:58:41.292Z,3.20
2017-11-27T06:01:13.952Z,3.15
2017-11-27T06:03:53.103Z,3.37
2017-11-27T06:06:37.821Z,3.41
2017-11-27T06:09:09.251Z,3.37
2017-11-27T06:11:41.172Z,3.31
2017-11-27T06:14:15.606Z,3.17
2017-11-27T06:16:49.091Z,3.18
2017-11-27T06:19:21.806Z,3.30
2017-11-27T06:21:53.499Z,3.24
2017-11-27T06:24:28.692Z,3.25
2017-11-27T06:27:00.383Z,3.21
2017-11-27T06:29:34.400Z,3.22
2017-11-27T06:32:07.594Z,3.19
2017-11-27T06:34:38.386Z,3.19
2017-11-27T06:37:09.410Z,3.19
2017-11-27T06:39:40.477Z,3.20
2017-11-27T06:42:11.274Z,3.17
2017-11-27T06:44:42.178Z,3.22
2017-11-27T06:47:14.793Z,3.21
2017-11-27T06:49:45.931Z,3.25
2017-11-27T06:52:17.236Z,3.30
2017-11-27T06:54:48.083Z,3.24
2017-11-27T06:57:20.716Z,3.56
2017-11-27T06:59:51.780Z,3.36
2017-11-27T07:02:24.056Z,3.41
2017-11-27T07:04:55.125Z,3.48
2017-11-27T07:07:28.667Z,3.54
2017-11-27T07:09:59.893Z,3.50
2017-11-27T07:12:33.471Z,3.50
2017-11-27T07:15:05.223Z,3.52
2017-11-27T07:17:36.215Z,3.52
2017-11-27T07:20:10.375Z,3.57
2017-11-27T07:22:42.350Z,3.67
2017-11-27T07:25:13.834Z,3.61
2017-11-27T07:27:45.185Z,3.77
2017-11-27T07:30:17.302Z,3.79
2017-11-27T07:32:48.854Z,3.71
2017-11-27T07:35:21.129Z,3.74
2017-11-27T07:37:56.214Z,3.90
2017-11-27T07:40:29.149Z,3.81
2017-11-27T07:43:01.291Z,3.88
2017-11-27T07:45:35.709Z,3.75
2017-11-27T07:48:06.665Z,3.78
2017-11-27T07:50:37.911Z,3.79
2017-11-27T07:53:10.329Z,3.79
2017-11-27T07:55:41.236Z,3.89
2017-11-27T07:58:12.543Z,3.96
2017-11-27T08:00:43.626Z,3.95
2017-11-27T08:03:14.644Z,3.90
2017-11-27T08:05:45.689Z,4.00
2017-11-27T08:08:16.857Z,3.99
2017-11-27T08:10:47.732Z,4.05
2017-11-27T08:13:18.841Z,4.01
2017-11-27T08:15:49.887Z,4.00
2017-11-27T08:18:20.926Z,4.11
2017-11-27T08:20:52.087Z,4.07
2017-11-27T08:23:23.863Z,4.14
2017-11-27T08:25:56.502Z,4.20
2017-11-27T08:28:32.957Z,4.12
2017-11-27T08:31:04.427Z,4.16
2017-11-27T08:33:36.643Z,4.15
2017-11-27T08:36:08.946Z,4.16
2017-11-27T08:38:39.895Z,4.15
2017-11-27T08:41:11.237Z,4.25
2017-11-27T08:43:42.652Z,4.28
2017-11-27T08:46:14.822Z,4.36
2017-11-27T08:48:45.861Z,4.35
2017-11-27T08:51:17.163Z,4.33
2017-11-27T08:53:48.469Z,4.23
2017-11-27T08:56:21.039Z,4.26
2017-11-27T08:58:52.770Z,4.25
2017-11-27T09:01:23.762Z,4.27
2017-11-27T09:03:54.729Z,4.43
2017-11-27T09:06:26.272Z,4.28
2017-11-27T09:08:59.267Z,4.34
2017-11-27T09:11:32.974Z,4.38
2017-11-27T09:14:04.702Z,4.44
2017-11-27T09:16:35.740Z,4.38
2017-11-27T09:19:06.648Z,4.37
2017-11-27T09:21:39.248Z,4.50
2017-11-27T09:24:10.871Z,4.49
2017-11-27T09:26:42.047Z,4.51
2017-11-27T09:29:13.859Z,4.65
2017-11-27T09:31:45.880Z,4.71
2017-11-27T09:34:16.787Z,4.77
2017-11-27T09:36:47.708Z,4.80
2017-11-27T09:39:19.021Z,4.76
2017-11-27T09:41:50.237Z,4.76
2017-11-27T09:44:21.025Z,4.73
2017-11-27T09:46:52.290Z,4.82
2017-11-27T09:49:23.947Z,4.73
2017-11-27T09:51:54.792Z,4.63
2017-11-27T09:54:25.987Z,4.63
2017-11-27T09:56:57.084Z,4.66
2017-11-27T09:59:29.935Z,4.56
2017-11-27T10:02:01.050Z,4.65
2017-11-27T10:04:34.325Z,4.79
2017-11-27T10:07:05.261Z,4.72
2017-11-27T10:09:43.836Z,4.64
2017-11-27T10:12:22.339Z,4.76
2017-11-27T10:14:55.125Z,4.70
2017-11-27T10:17:29.478Z,4.71
2017-11-27T10:20:01.108Z,4.63
2017-11-27T10:22:33.886Z,4.55
2017-11-27T10:25:04.957Z,4.58
2017-11-27T10:27:35.981Z,4.55
2017-11-27T10:30:07.754Z,4.64
2017-11-27T10:32:38.565Z,4.54
2017-11-27T10:35:11.079Z,4.61
2017-11-27T10:37:41.877Z,4.50
2017-11-27T10:40:14.224Z,4.48
2017-11-27T10:42:48.358Z,4.52
2017-11-27T10:45:19.876Z,4.47
2017-11-27T10:47:51.032Z,4.58
2017-11-27T10:50:22.086Z,4.53
2017-11-27T10:52:53.410Z,4.59
2017-11-27T10:55:24.772Z,4.78
2017-11-27T10:57:56.373Z,4.76
2017-11-27T11:00:31.209Z,4.71
2017-11-27T11:03:02.289Z,4.71
2017-11-27T11:05:33.942Z,4.70
2017-11-27T11:08:04.961Z,4.71
2017-11-27T11:10:36.575Z,4.76
2017-11-27T11:13:09.299Z,4.70
2017-11-27T11:15:40.173Z,4.78
2017-11-27T11:18:11.970Z,4.76
2017-11-27T11:20:43.104Z,4.72
2017-11-27T11:23:14.265Z,4.74
2017-11-27T11:25:45.435Z,4.68
2017-11-27T11:28:21.251Z,4.75
2017-11-27T11:30:52.592Z,4.75
2017-11-27T11:33:26.391Z,4.75
2017-11-27T11:35:57.934Z,4.73
2017-11-27T11:38:31.387Z,4.65
2017-11-27T11:41:02.529Z,4.70
2017-11-27T11:43:34.779Z,4.64
2017-11-27T11:46:05.520Z,4.59
2017-11-27T11:48:36.905Z,4.70
2017-11-27T11:51:08.067Z,4.71
2017-11-27T11:53:39.545Z,4.67
2017-11-27T11:56:10.934Z,4.61
2017-11-27T11:58:42.116Z,4.63
2017-11-27T12:01:13.460Z,4.60
2017-11-27T12:03:44.530Z,4.71
2017-11-27T12:06:15.416Z,4.63
2017-11-27T12:08:46.496Z,4.75
2017-11-27T12:11:17.564Z,4.77
2017-11-27T12:13:48.804Z,4.80
2017-11-27T12:16:20.156Z,4.81
2017-11-27T12:18:51.605Z,4.78
2017-11-27T12:21:22.414Z,4.75
2017-11-27T12:23:53.568Z,4.73
2017-11-27T12:26:24.701Z,4.74
2017-11-27T12:28:55.845Z,4.69
2017-11-27T12:31:27.075Z,4.69
2017-11-27T12:34:01.363Z,4.61
2017-11-27T12:36:34.682Z,4.66
2017-11-27T12:39:06.167Z,4.70
2017-11-27T12:41:37.339Z,4.64
2017-11-27T12:44:08.584Z,4.76
2017-11-27T12:46:39.442Z,4.78
2017-11-27T12:49:10.463Z,4.71
2017-11-27T12:51:41.747Z,4.71
2017-11-27T12:54:13.014Z,4.66
2017-11-27T12:56:44.327Z,4.75
2017-11-27T12:59:15.622Z,4.78
2017-11-27T13:01:46.815Z,4.73
2017-11-27T13:04:18.083Z,4.73
2017-11-27T13:06:50.291Z,4.71
2017-11-27T13:09:21.976Z,4.70
2017-11-27T13:11:53.903Z,4.85
2017-11-27T13:14:25.023Z,4.76
2017-11-27T13:16:56.583Z,4.81
2017-11-27T13:19:30.223Z,4.79
2017-11-27T13:22:01.495Z,4.78
2017-11-27T13:24:34.593Z,4.68
2017-11-27T13:27:19.241Z,4.70
2017-11-27T13:29:56.337Z,4.80
2017-11-27T13:32:30.128Z,4.76
2017-11-27T13:35:01.802Z,4.74
2017-11-27T13:37:35.231Z,4.72
2017-11-27T13:40:06.517Z,4.74
2017-11-27T13:42:44.311Z,4.72
2017-11-27T13:45:16.826Z,4.70
2017-11-27T13:47:48.790Z,4.65
2017-11-27T13:50:23.322Z,4.57
2017-11-27T13:52:54.624Z,4.54
2017-11-27T13:55:25.525Z,4.58
2017-11-27T13:57:57.423Z,4.65
2017-11-27T14:00:29.924Z,4.58
2017-11-27T14:03:01.928Z,4.56
2017-11-27T14:05:34.294Z,4.59
2017-11-27T14:08:57.159Z,4.54
2017-11-27T14:22:04.957Z,4.58
2017-11-27T14:24:36.146Z,4.61
2017-11-27T14:27:07.608Z,4.65
2017-11-27T14:29:39.490Z,4.63
2017-11-27T14:32:10.476Z,4.71
2017-11-27T14:34:44.769Z,4.71
2017-11-27T14:37:15.785Z,4.72
2017-11-27T14:39:46.994Z,4.75
2017-11-27T14:42:18.274Z,4.77
2017-11-27T14:44:49.435Z,4.74
2017-11-27T14:47:20.734Z,4.80
2017-11-27T14:49:52.000Z,4.80
2017-11-27T14:52:23.289Z,4.74
2017-11-27T14:54:54.156Z,4.76
2017-11-27T14:57:26.030Z,4.80
2017-11-27T14:59:57.081Z,4.73
2017-11-27T15:02:33.061Z,4.75
2017-11-27T15:05:04.586Z,4.82
2017-11-27T15:07:51.602Z,4.78
2017-11-27T15:10:23.033Z,4.75
2017-11-27T15:12:54.252Z,4.76
2017-11-27T15:15:25.703Z,4.76
2017-11-27T15:17:57.667Z,4.78
2017-11-27T15:20:31.624Z,4.76
2017-11-27T15:23:02.914Z,4.73
2017-11-27T15:25:34.120Z,4.76
2017-11-27T15:28:05.673Z,4.73
2017-11-27T15:30:37.151Z,4.76
2017-11-27T15:33:08.764Z,4.74
2017-11-27T15:35:39.792Z,4.74
2017-11-27T15:38:11.035Z,4.79
2017-11-27T15:40:42.770Z,4.75
2017-11-27T15:43:14.125Z,4.78
2017-11-27T15:45:46.248Z,4.72
2017-11-27T15:48:17.891Z,4.79
2017-11-27T15:50:50.117Z,4.74
2017-11-27T15:53:21.575Z,4.74
2017-11-27T15:55:53.972Z,4.72
2017-11-27T15:58:26.351Z,4.77
2017-11-27T16:01:01.017Z,4.77
2017-11-27T16:03:33.146Z,4.71
2017-11-27T16:06:06.957Z,4.76
2017-11-27T16:08:39.267Z,4.73
2017-11-27T16:11:11.699Z,4.71
2017-11-27T16:13:43.956Z,4.78
2017-11-27T16:16:15.394Z,4.82
2017-11-27T16:18:46.501Z,4.78
2017-11-27T16:21:20.102Z,4.73
2017-11-27T16:23:52.665Z,4.80
2017-11-27T16:26:24.701Z,4.80
2017-11-27T16:28:57.888Z,4.75
2017-11-27T16:31:32.903Z,4.69
2017-11-27T16:34:05.746Z,4.70
2017-11-27T16:36:37.145Z,4.73
2017-11-27T16:39:08.865Z,4.69
2017-11-27T16:41:41.780Z,4.76
2017-11-27T16:44:15.457Z,4.72
2017-11-27T16:46:47.521Z,4.72
2017-11-27T16:49:19.322Z,4.81
2017-11-27T16:51:54.013Z,4.83
2017-11-27T16:54:43.068Z,4.70
2017-11-27T16:57:14.769Z,4.68
2017-11-27T16:59:47.799Z,4.71
2017-11-27T17:02:19.013Z,4.73
2017-11-27T17:04:50.925Z,4.76
2017-11-27T17:07:22.698Z,4.78
2017-11-27T17:10:01.392Z,4.74
2017-11-27T17:12:39.170Z,4.73
2017-11-27T17:15:12.316Z,4.79
2017-11-27T17:17:44.359Z,4.76
2017-11-27T17:20:18.794Z,4.82
2017-11-27T17:22:54.093Z,4.81
2017-11-27T17:25:27.379Z,4.76
2017-11-27T17:27:59.029Z,4.76
2017-11-27T17:30:35.057Z,4.88
2017-11-27T17:33:08.708Z,4.79
2017-11-27T17:35:40.420Z,4.80
2017-11-27T17:38:14.681Z,4.87
2017-11-27T17:40:47.492Z,4.83
2017-11-27T17:43:19.080Z,4.85
2017-11-27T17:46:00.057Z,4.88
2017-11-27T17:48:36.948Z,4.82
2017-11-27T17:51:10.233Z,4.86
2017-11-27T17:53:50.368Z,4.88
2017-11-27T17:56:24.749Z,4.93
2017-11-27T17:58:58.650Z,4.84
2017-11-27T18:01:30.719Z,4.89
2017-11-27T18:04:02.732Z,4.86
2017-11-27T18:06:35.446Z,4.89
2017-11-27T18:09:08.380Z,4.90
2017-11-27T18:11:40.933Z,4.86
2017-11-27T18:14:18.136Z,4.89
2017-11-27T18:16:52.544Z,4.90
2017-11-27T18:19:29.007Z,4.87
2017-11-27T18:22:03.299Z,4.90
2017-11-27T18:24:37.954Z,4.88
2017-11-27T18:27:12.115Z,4.92
2017-11-27T18:29:44.019Z,4.91
2017-11-27T18:32:16.211Z,4.87
2017-11-27T18:34:50.601Z,4.90
2017-11-27T18:37:25.360Z,4.93
2017-11-27T18:39:59.587Z,4.96
2017-11-27T18:42:39.748Z,4.94
2017-11-27T18:45:12.158Z,4.93
2017-11-27T18:47:44.224Z,4.93
2017-11-27T18:50:16.087Z,4.92
2017-11-27T18:52:48.066Z,4.99
2017-11-27T18:55:20.901Z,4.95
2017-11-27T18:57:52.362Z,4.91
2017-11-27T19:00:30.903Z,4.97
2017-11-27T19:03:03.281Z,4.96
2017-11-27T19:05:41.312Z,4.96
2017-11-27T19:16:00.529Z,4.99
2017-11-27T19:18:32.986Z,5.01
2017-11-27T19:21:04.872Z,5.03
2017-11-27T19:23:37.575Z,5.07
2017-11-27T19:26:09.902Z,5.06
2017-11-27T19:28:43.007Z,5.11
2017-11-27T19:31:14.756Z,5.15
2017-11-27T19:33:46.630Z,5.15
2017-11-27T19:36:18.284Z,5.07
2017-11-27T19:38:53.468Z,5.10
2017-11-27T19:41:35.139Z,5.14
2017-11-27T19:44:10.431Z,5.14
2017-11-27T19:46:43.892Z,5.15
2017-11-27T19:49:16.167Z,5.14
2017-11-27T19:51:49.231Z,5.13
2017-11-27T19:54:22.849Z,5.18
2017-11-27T19:57:10.151Z,5.13
2017-11-27T19:59:44.269Z,5.23
2017-11-27T20:02:20.007Z,5.22
2017-11-27T20:05:01.133Z,5.21
2017-11-27T20:07:35.997Z,5.24
2017-11-27T20:10:09.013Z,5.27
2017-11-27T20:12:41.847Z,5.24
2017-11-27T20:15:16.273Z,5.29
2017-11-27T20:17:51.342Z,5.36
2017-11-27T20:20:22.854Z,5.29
2017-11-27T20:22:54.651Z,5.35
2017-11-27T20:25:26.070Z,5.38
2017-11-27T20:27:58.075Z,5.36
2017-11-27T20:30:32.302Z,5.44
2017-11-27T20:33:08.724Z,5.40
2017-11-27T20:35:43.769Z,5.49
2017-11-27T20:38:16.024Z,5.40
2017-11-27T20:40:49.324Z,5.47
2017-11-27T20:43:23.016Z,5.47
2017-11-27T20:45:55.726Z,5.44
2017-11-27T20:51:33.401Z,5.47
2017-11-27T20:54:08.345Z,5.47
2017-11-27T20:56:41.573Z,5.54
2017-11-27T20:59:15.938Z,5.50
2017-11-27T21:01:47.422Z,5.52
2017-11-27T21:04:18.516Z,5.55
2017-11-27T21:06:50.509Z,5.58
2017-11-27T21:09:22.692Z,5.50
2017-11-27T21:11:53.936Z,5.54
2017-11-27T21:14:25.090Z,5.49
2017-11-27T21:16:57.272Z,5.54
2017-11-27T21:19:28.300Z,5.46
2017-11-27T21:21:59.519Z,5.55
2017-11-27T21:24:34.284Z,5.61
2017-11-27T21:27:07.678Z,5.62
2017-11-27T21:29:38.870Z,5.63
2017-11-27T21:32:09.885Z,5.51
2017-11-27T21:34:41.511Z,5.55
2017-11-27T21:37:12.990Z,5.54
2017-11-27T21:39:44.620Z,5.52
2017-11-27T21:42:16.812Z,5.56
2017-11-27T21:44:48.285Z,5.53
2017-11-27T21:47:20.843Z,5.56
2017-11-27T21:49:53.049Z,5.51
2017-11-27T21:52:25.950Z,5.57
2017-11-27T21:54:58.745Z,5.53
2017-11-27T21:57:30.054Z,5.60
2017-11-27T22:00:02.424Z,5.59
2017-11-27T22:02:34.092Z,5.52
2017-11-27T22:05:09.034Z,5.52
2017-11-27T22:07:41.095Z,5.55
2017-11-27T22:10:15.213Z,5.55
2017-11-27T22:12:47.935Z,5.57
2017-11-27T22:15:21.590Z,5.61
2017-11-27T22:17:52.873Z,5.55
2017-11-27T22:20:26.188Z,5.58
2017-11-27T22:22:57.105Z,5.66
2017-11-27T22:25:30.325Z,5.59
2017-11-27T22:28:02.368Z,5.66
2017-11-27T22:30:36.453Z,5.56
2017-11-27T22:33:08.006Z,5.71
2017-11-27T22:35:43.084Z,5.84
2017-11-27T22:38:15.649Z,5.71
2017-11-27T22:40:47.084Z,5.76
2017-11-27T22:43:21.313Z,5.75
2017-11-27T22:45:54.939Z,5.81
2017-11-27T22:48:29.480Z,5.70
2017-11-27T22:51:02.197Z,5.76
2017-11-27T22:53:36.310Z,5.64
2017-11-27T22:56:11.944Z,5.65
2017-11-27T22:58:46.425Z,5.69
2017-11-27T23:01:21.532Z,5.79
2017-11-27T23:03:57.589Z,5.72
2017-11-27T23:06:30.120Z,5.69
2017-11-27T23:09:01.904Z,5.76
2017-11-27T23:11:36.833Z,5.68
2017-11-27T23:14:10.363Z,5.71
2017-11-27T23:16:41.310Z,5.65
2017-11-27T23:19:12.740Z,5.65
2017-11-27T23:21:43.958Z,5.64
2017-11-27T23:27:17.181Z,5.62
2017-11-27T23:29:49.166Z,5.63
2017-11-27T23:32:29.516Z,5.62
2017-11-27T23:35:03.132Z,5.65
2017-11-27T23:37:35.471Z,5.79
2017-11-27T23:40:07.214Z,5.71
2017-11-27T23:42:38.593Z,5.83
2017-11-27T23:45:11.589Z,5.79
2017-11-27T23:47:42.999Z,5.72
2017-11-27T23:50:16.064Z,5.82
2017-11-27T23:52:47.620Z,5.87
2017-11-27T23:55:19.173Z,5.87
2017-11-27T23:57:50.095Z,5.86
